createdAt,value
2022-09-10T00:02:10.830Z,101571.59
2022-09-10T00:04:38.659Z,101572.41
2022-09-10T00:07:06.556Z,101557.63
2022-09-10T00:09:34.296Z,101567.91
2022-09-10T00:12:02.153Z,101571.28
2022-09-10T00:14:31.349Z,101572.94
2022-09-10T00:16:59.169Z,101578.09
2022-09-10T00:19:27.105Z,101580.69
2022-09-10T00:21:54.846Z,101571.94
2022-09-10T00:24:24.352Z,101587.47
2022-09-10T00:26:52.837Z,101576.13
2022-09-10T00:29:20.605Z,101587.31
2022-09-10T00:31:50.887Z,101586.41
2022-09-10T00:34:18.603Z,101585.50
2022-09-10T00:36:46.886Z,101586.28
2022-09-10T00:39:15.287Z,101581.00
2022-09-10T00:41:46.813Z,101580.94
2022-09-10T00:44:35.639Z,101582.59
2022-09-10T00:47:05.992Z,101580.00
2022-09-10T00:49:35.056Z,101583.44
2022-09-10T00:52:03.926Z,101574.75
2022-09-10T00:54:33.245Z,101571.22
2022-09-10T00:57:18.603Z,101574.63
2022-09-10T00:59:48.289Z,101578.94
2022-09-10T01:02:17.819Z,101563.28
2022-09-10T01:04:46.038Z,101571.91
2022-09-10T01:07:15.738Z,101571.84
2022-09-10T01:09:44.095Z,101565.72
2022-09-10T01:12:19.972Z,101569.97
2022-09-10T01:14:56.380Z,101563.94
2022-09-10T01:17:30.020Z,101565.66
2022-09-10T01:20:15.363Z,101574.28
2022-09-10T01:22:50.974Z,101571.63
2022-09-10T01:25:23.058Z,101572.44
2022-09-10T01:27:54.235Z,101576.63
2022-09-10T01:30:23.005Z,101569.66
2022-09-10T01:32:53.815Z,101579.13
2022-09-10T01:35:24.117Z,101580.84
2022-09-10T01:37:54.607Z,101581.69
2022-09-10T01:40:29.758Z,101588.56
2022-09-10T01:43:02.454Z,101583.38
2022-09-10T01:45:30.988Z,101595.41
2022-09-10T01:48:06.734Z,101598.84
2022-09-10T01:50:39.720Z,101594.47
2022-09-10T01:53:14.153Z,101600.47
2022-09-10T01:55:47.232Z,101591.75
2022-09-10T01:58:21.398Z,101598.69
2022-09-10T02:00:53.810Z,101596.94
2022-09-10T02:03:25.030Z,101601.28
2022-09-10T02:05:54.974Z,101601.28
2022-09-10T02:08:24.571Z,101603.91
2022-09-10T02:10:54.066Z,101609.97
2022-09-10T02:13:23.899Z,101615.94
2022-09-10T02:15:52.582Z,101618.50
2022-09-10T02:18:21.041Z,101615.88
2022-09-10T02:20:49.493Z,101620.97
2022-09-10T02:23:21.975Z,101607.09
2022-09-10T02:25:50.660Z,101616.50
2022-09-10T02:28:18.655Z,101612.16
2022-09-10T02:30:48.377Z,101612.09
2022-09-10T02:33:18.548Z,101615.50
2022-09-10T02:35:47.879Z,101610.25
2022-09-10T02:38:16.495Z,101611.97
2022-09-10T02:40:44.393Z,101616.28
2022-09-10T02:43:12.620Z,101617.06
2022-09-10T02:45:41.215Z,101618.78
2022-09-10T02:48:10.412Z,101615.28
2022-09-10T02:50:38.138Z,101619.53
2022-09-10T02:53:07.055Z,101622.94
2022-09-10T02:55:35.130Z,101620.25
2022-09-10T02:58:03.145Z,101621.06
2022-09-10T03:00:32.736Z,101617.53
2022-09-10T03:03:03.098Z,101623.56
2022-09-10T03:05:32.784Z,101626.13
2022-09-10T03:08:01.375Z,101626.97
2022-09-10T03:10:30.018Z,101621.75
2022-09-10T03:12:57.770Z,101624.25
2022-09-10T03:15:25.648Z,101632.78
2022-09-10T03:17:53.467Z,101624.03
2022-09-10T03:20:23.201Z,101624.78
2022-09-10T03:22:52.603Z,101621.28
2022-09-10T03:25:20.715Z,101621.25
2022-09-10T03:27:48.483Z,101612.50
2022-09-10T03:30:16.311Z,101613.31
2022-09-10T03:32:44.461Z,101610.72
2022-09-10T03:35:13.884Z,101611.56
2022-09-10T03:37:41.690Z,101611.53
2022-09-10T03:40:11.994Z,101611.44
2022-09-10T03:42:39.966Z,101605.38
2022-09-10T03:45:08.436Z,101605.31
2022-09-10T03:47:37.686Z,101603.53
2022-09-10T03:50:05.802Z,101604.34
2022-09-10T03:52:33.653Z,101601.75
2022-09-10T03:55:01.410Z,101605.16
2022-09-10T03:57:30.636Z,101606.81
2022-09-10T03:59:58.883Z,101602.44
2022-09-10T04:02:26.717Z,101605.03
2022-09-10T04:04:54.619Z,101603.25
2022-09-10T04:07:22.480Z,101600.69
2022-09-10T04:09:50.481Z,101598.09
2022-09-10T04:12:18.529Z,101601.53
2022-09-10T04:14:47.797Z,101598.09
2022-09-10T04:17:15.826Z,101609.22
2022-09-10T04:19:43.593Z,101605.72
2022-09-10T04:22:11.379Z,101607.41
2022-09-10T04:24:39.185Z,101610.72
2022-09-10T04:27:06.966Z,101608.09
2022-09-10T04:29:38.160Z,101611.53
2022-09-10T04:32:07.563Z,101609.00
2022-09-10T04:34:35.376Z,101608.09
2022-09-10T04:37:03.329Z,101609.00
2022-09-10T04:39:31.121Z,101618.47
2022-09-10T04:41:58.995Z,101618.47
2022-09-10T04:44:27.943Z,101635.69
2022-09-10T04:46:55.929Z,101628.81
2022-09-10T04:49:25.180Z,101630.41
2022-09-10T04:51:53.237Z,101640.78
2022-09-10T04:54:21.030Z,101645.91
2022-09-10T04:56:49.696Z,101644.16
2022-09-10T04:59:17.470Z,101648.41
2022-09-10T05:01:45.470Z,101643.16
2022-09-10T05:04:13.247Z,101646.59
2022-09-10T05:06:43.081Z,101644.00
2022-09-10T05:09:11.591Z,101647.44
2022-09-10T05:11:39.333Z,101651.69
2022-09-10T05:14:07.492Z,101660.28
2022-09-10T05:16:36.582Z,101656.75
2022-09-10T05:19:04.453Z,101654.09
2022-09-10T05:21:32.234Z,101656.59
2022-09-10T05:24:01.473Z,101659.19
2022-09-10T05:26:29.459Z,101660.91
2022-09-10T05:28:59.837Z,101673.84
2022-09-10T05:31:28.157Z,101679.84
2022-09-10T05:33:56.255Z,101669.53
2022-09-10T05:36:24.412Z,101672.06
2022-09-10T05:38:52.556Z,101669.41
2022-09-10T05:41:21.776Z,101680.66
2022-09-10T05:43:49.805Z,101680.69
2022-09-10T05:46:17.871Z,101682.41
2022-09-10T05:48:45.846Z,101676.31
2022-09-10T05:51:16.453Z,101681.50
2022-09-10T05:53:44.271Z,101681.47
2022-09-10T05:56:12.926Z,101674.53
2022-09-10T05:58:44.982Z,101689.25
2022-09-10T06:01:12.773Z,101688.41
2022-09-10T06:03:42.577Z,101685.94
2022-09-10T06:06:11.127Z,101685.94
2022-09-10T06:08:42.299Z,101686.00
2022-09-10T06:11:11.950Z,101693.78
2022-09-10T06:13:40.190Z,101700.72
2022-09-10T06:16:10.050Z,101703.38
2022-09-10T06:18:38.562Z,101708.59
2022-09-10T06:21:07.770Z,101708.69
2022-09-10T06:23:36.237Z,101709.63
2022-09-10T06:26:05.267Z,101710.56
2022-09-10T06:28:33.803Z,101711.47
2022-09-10T06:31:05.819Z,101715.94
2022-09-10T06:33:35.693Z,101723.03
2022-09-10T06:36:03.775Z,101724.06
2022-09-10T06:38:33.706Z,101726.78
2022-09-10T06:41:04.836Z,101722.66
2022-09-10T06:43:33.808Z,101727.97
2022-09-10T06:46:01.611Z,101728.13
2022-09-10T06:48:48.078Z,101730.91
2022-09-10T06:51:17.857Z,101726.75
2022-09-10T06:53:47.159Z,101724.28
2022-09-10T06:56:15.964Z,101719.31
2022-09-10T06:58:45.047Z,101720.31
2022-09-10T07:01:18.077Z,101723.13
2022-09-10T07:03:46.412Z,101731.00
2022-09-10T07:06:16.753Z,101726.84
2022-09-10T07:08:46.180Z,101725.34
2022-09-10T07:11:15.021Z,101728.00
2022-09-10T07:13:43.622Z,101741.09
2022-09-10T07:16:11.557Z,101744.63
2022-09-10T07:18:39.616Z,101749.94
2022-09-10T07:21:08.023Z,101751.81
2022-09-10T07:23:35.830Z,101746.75
2022-09-10T07:26:09.915Z,101752.97
2022-09-10T07:28:38.160Z,101753.16
2022-09-10T07:31:16.909Z,101763.72
2022-09-10T07:33:44.781Z,101768.19
2022-09-10T07:36:16.670Z,101764.91
2022-09-10T07:38:48.755Z,101766.81
2022-09-10T07:41:21.163Z,101773.03
2022-09-10T07:43:49.664Z,101771.50
2022-09-10T07:46:20.725Z,101774.22
2022-09-10T07:48:49.039Z,101757.91
2022-09-10T07:51:19.330Z,101768.41
2022-09-10T07:53:50.590Z,101765.91
2022-09-10T07:56:20.543Z,101767.75
2022-09-10T07:58:48.404Z,101760.13
2022-09-10T08:01:19.758Z,101764.59
2022-09-10T08:03:47.947Z,101760.38
2022-09-10T08:06:18.476Z,101769.13
2022-09-10T08:11:47.275Z,101777.16
2022-09-10T08:14:15.306Z,101773.75
2022-09-10T08:16:44.531Z,101776.41
2022-09-10T08:19:13.969Z,101775.69
2022-09-10T08:21:41.802Z,101771.41
2022-09-10T08:24:11.664Z,101777.41
2022-09-10T08:26:39.506Z,101779.22
2022-09-10T08:29:09.248Z,101777.63
2022-09-10T08:31:37.106Z,101779.47
2022-09-10T08:34:05.625Z,101768.41
2022-09-10T08:36:33.378Z,101773.75
2022-09-10T08:39:05.113Z,101768.63
2022-09-10T08:41:41.587Z,101771.47
2022-09-10T08:44:17.729Z,101772.50
2022-09-10T08:46:48.498Z,101778.00
2022-09-10T08:49:20.379Z,101784.34
2022-09-10T08:51:50.935Z,101786.50
2022-09-10T08:54:21.010Z,101796.38
2022-09-10T08:56:49.271Z,101796.72
2022-09-10T08:59:22.475Z,101792.63
2022-09-10T09:01:52.777Z,101796.13
2022-09-10T09:04:27.075Z,101792.69
2022-09-10T09:06:57.977Z,101799.66
2022-09-10T09:09:25.942Z,101806.63
2022-09-10T09:12:00.120Z,101807.56
2022-09-10T09:14:36.432Z,101809.38
2022-09-10T09:17:19.860Z,101812.94
2022-09-10T09:19:53.863Z,101819.06
2022-09-10T09:22:22.654Z,101813.81
2022-09-10T09:24:54.413Z,101804.22
2022-09-10T09:27:22.186Z,101815.53
2022-09-10T09:32:43.589Z,101810.25
2022-09-10T09:35:23.854Z,101814.59
2022-09-10T09:37:55.489Z,101802.25
2022-09-10T09:40:32.731Z,101810.94
2022-09-10T09:43:11.095Z,101808.41
2022-09-10T09:45:43.471Z,101816.31
2022-09-10T09:48:15.886Z,101819.88
2022-09-10T09:50:47.052Z,101813.75
2022-09-10T09:53:23.349Z,101815.47
2022-09-10T09:55:55.247Z,101804.13
2022-09-10T09:58:35.312Z,101808.44
2022-09-10T10:01:16.408Z,101809.38
2022-09-10T10:03:52.938Z,101818.13
2022-09-10T10:06:24.775Z,101814.63
2022-09-10T10:09:01.965Z,101816.38
2022-09-10T10:11:51.864Z,101817.22
2022-09-10T10:14:42.620Z,101820.72
2022-09-10T10:26:08.135Z,101822.97
2022-09-10T11:28:58.015Z,101799.06
2022-09-10T11:31:32.222Z,101795.47
2022-09-10T11:34:07.051Z,101797.94
2022-09-10T11:36:43.899Z,101806.47
2022-09-10T11:39:19.788Z,101806.97
2022-09-10T11:41:52.700Z,101806.91
2022-09-10T11:44:46.099Z,101793.78
2022-09-10T11:47:21.144Z,101793.03
2022-09-10T11:49:54.066Z,101786.13
2022-09-10T11:52:26.068Z,101796.13
2022-09-10T11:54:57.751Z,101790.97
2022-09-10T11:57:35.263Z,101787.38
2022-09-10T12:00:15.873Z,101786.50
2022-09-10T12:03:28.151Z,101788.94
2022-09-10T12:06:07.026Z,101792.31
2022-09-10T12:08:52.375Z,101794.75
2022-09-10T12:11:30.074Z,101799.72
2022-09-10T12:13:58.958Z,101799.09
2022-09-10T12:16:36.763Z,101800.03
2022-09-10T12:19:17.932Z,101796.22
2022-09-10T12:21:52.507Z,101788.19
2022-09-10T12:24:38.889Z,101793.50
2022-09-10T12:27:10.223Z,101803.53
2022-09-10T12:29:40.942Z,101788.34
2022-09-10T12:32:39.266Z,101802.00
2022-09-10T12:35:43.312Z,101794.78
2022-09-10T12:38:56.003Z,101799.84
2022-09-10T12:41:56.673Z,101797.00
2022-09-10T12:44:34.639Z,101798.75
2022-09-10T12:47:42.367Z,101804.06
2022-09-10T12:50:40.560Z,101800.69
2022-09-10T12:53:37.799Z,101804.22
2022-09-10T12:56:50.500Z,101804.25
2022-09-10T12:59:42.274Z,101808.81
2022-09-10T13:02:23.117Z,101800.91
2022-09-10T13:04:58.764Z,101795.41
2022-09-10T13:07:33.591Z,101806.91
2022-09-10T13:10:07.233Z,101808.66
2022-09-10T13:12:38.311Z,101811.16
2022-09-10T13:15:17.445Z,101801.34
2022-09-10T13:18:21.591Z,101807.56
2022-09-10T13:20:52.485Z,101801.81
2022-09-10T13:23:45.487Z,101796.50
2022-09-10T13:26:38.531Z,101799.25
2022-09-10T13:29:11.697Z,101801.09
2022-09-10T13:31:45.982Z,101806.38
2022-09-10T13:34:48.912Z,101803.78
2022-09-10T13:37:44.167Z,101803.00
2022-09-10T13:40:53.660Z,101805.63
2022-09-10T13:43:40.240Z,101798.63
2022-09-10T13:46:15.253Z,101798.56
2022-09-10T13:48:51.822Z,101797.66
2022-09-10T13:51:31.436Z,101804.78
2022-09-10T13:54:08.708Z,101801.38
2022-09-10T13:56:45.338Z,101799.44
2022-09-10T13:59:20.957Z,101786.38
2022-09-10T14:01:51.103Z,101794.13
2022-09-10T14:04:32.096Z,101792.50
2022-09-10T14:07:08.161Z,101790.00
2022-09-10T14:09:37.872Z,101795.59
2022-09-10T14:12:12.295Z,101785.25
2022-09-10T14:14:44.340Z,101792.28
2022-09-10T14:17:17.177Z,101795.84
2022-09-10T14:19:52.028Z,101792.44
2022-09-10T14:22:23.018Z,101795.91
2022-09-10T14:24:54.172Z,101784.53
2022-09-10T14:27:26.532Z,101795.06
2022-09-10T14:29:57.557Z,101788.16
2022-09-10T14:32:33.418Z,101781.25
2022-09-10T14:35:37.923Z,101785.78
2022-09-10T14:38:23.711Z,101778.75
2022-09-10T14:40:58.498Z,101793.56
2022-09-10T14:43:32.499Z,101782.28
2022-09-10T14:46:03.638Z,101789.25
2022-09-10T14:48:37.215Z,101787.47
2022-09-10T14:51:13.606Z,101792.75
2022-09-10T14:53:43.911Z,101788.44
2022-09-10T14:56:23.544Z,101786.81
2022-09-10T14:58:59.889Z,101781.63
2022-09-10T15:01:28.795Z,101779.09
2022-09-10T15:03:57.702Z,101779.09
2022-09-10T15:06:27.005Z,101786.94
2022-09-10T15:08:57.299Z,101773.97
2022-09-10T15:11:29.059Z,101780.13
2022-09-10T15:13:59.414Z,101777.53
2022-09-10T15:16:27.853Z,101768.00
2022-09-10T15:18:56.238Z,101772.34
2022-09-10T15:21:24.438Z,101775.84
2022-09-10T15:23:52.634Z,101775.88
2022-09-10T15:26:22.377Z,101776.75
2022-09-10T15:28:50.715Z,101768.97
2022-09-10T15:31:20.257Z,101775.94
2022-09-10T15:33:48.678Z,101769.88
2022-09-10T15:36:17.023Z,101774.25
2022-09-10T15:38:46.725Z,101769.88
2022-09-10T15:41:17.112Z,101773.41
2022-09-10T15:43:47.273Z,101771.69
2022-09-10T15:46:16.186Z,101782.19
2022-09-10T15:48:45.255Z,101769.06
2022-09-10T15:51:16.195Z,101776.94
2022-09-10T15:53:46.429Z,101775.19
2022-09-10T15:56:17.148Z,101776.91
2022-09-10T15:58:54.063Z,101772.47
2022-09-10T16:01:24.079Z,101760.25
2022-09-10T16:03:55.590Z,101762.03
2022-09-10T16:06:25.007Z,101757.69
2022-09-10T16:08:57.422Z,101763.78
2022-09-10T16:11:26.394Z,101762.09
2022-09-10T16:14:02.180Z,101753.38
2022-09-10T16:16:34.345Z,101761.25
2022-09-10T16:19:02.546Z,101760.44
2022-09-10T16:21:33.872Z,101754.34
2022-09-10T16:24:03.098Z,101756.09
2022-09-10T16:26:33.707Z,101754.38
2022-09-10T16:29:07.629Z,101768.31
2022-09-10T16:31:39.186Z,101770.94
2022-09-10T16:34:09.722Z,101767.44
2022-09-10T16:36:41.148Z,101763.13
2022-09-10T16:39:13.088Z,101763.16
2022-09-10T16:41:42.610Z,101765.75
2022-09-10T16:44:13.658Z,101769.19
2022-09-10T16:46:43.270Z,101776.19
2022-09-10T16:49:14.079Z,101773.56
2022-09-10T16:51:43.421Z,101770.09
2022-09-10T16:54:16.031Z,101764.81
2022-09-10T16:56:46.624Z,101769.16
2022-09-10T16:59:19.716Z,101771.75
2022-09-10T17:01:50.134Z,101775.22
2022-09-10T17:04:27.599Z,101764.72
2022-09-10T17:06:59.163Z,101775.19
2022-09-10T17:09:27.826Z,101776.09
2022-09-10T17:11:56.248Z,101780.50
2022-09-10T17:14:26.054Z,101777.91
2022-09-10T17:16:54.376Z,101773.56
2022-09-10T17:19:26.281Z,101773.53
2022-09-10T17:21:57.196Z,101769.19
2022-09-10T17:24:27.884Z,101768.38
2022-09-10T17:26:56.757Z,101766.72
2022-09-10T17:29:29.144Z,101774.56
2022-09-10T17:31:57.609Z,101770.22
2022-09-10T17:34:27.448Z,101772.88
2022-09-10T17:36:56.456Z,101778.09
2022-09-10T17:39:28.385Z,101773.72
2022-09-10T17:41:56.574Z,101778.06
2022-09-10T17:44:27.131Z,101783.25
2022-09-10T17:46:55.920Z,101794.56
2022-09-10T17:49:25.690Z,101788.47
2022-09-10T17:51:53.892Z,101791.09
2022-09-10T17:54:23.512Z,101795.44
2022-09-10T17:56:51.720Z,101794.56
2022-09-10T17:59:20.121Z,101793.66
2022-09-10T18:01:49.802Z,101804.97
2022-09-10T18:04:21.782Z,101795.38
2022-09-10T18:06:52.787Z,101797.09
2022-09-10T18:09:22.232Z,101802.28
2022-09-10T18:11:51.730Z,101805.75
2022-09-10T18:14:24.564Z,101818.75
2022-09-10T18:16:58.164Z,101816.09
2022-09-10T18:19:26.753Z,101804.72
2022-09-10T18:21:56.119Z,101809.91
2022-09-10T18:24:25.176Z,101808.09
2022-09-10T18:26:55.016Z,101810.66
2022-09-10T18:29:25.475Z,101814.13
2022-09-10T18:31:57.800Z,101813.22
2022-09-10T18:34:28.107Z,101801.84
2022-09-10T18:36:58.129Z,101793.09
2022-09-10T18:39:27.995Z,101798.31
2022-09-10T18:41:57.277Z,101800.84
2022-09-10T18:44:27.776Z,101799.06
2022-09-10T18:47:00.486Z,101788.56
2022-09-10T18:49:29.331Z,101782.44
2022-09-10T18:51:58.159Z,101778.06
2022-09-10T18:54:29.524Z,101787.56
2022-09-10T18:56:58.211Z,101792.75
2022-09-10T18:59:27.489Z,101784.88
2022-09-10T19:02:00.058Z,101787.44
2022-09-10T19:04:29.998Z,101790.03
2022-09-10T19:06:59.322Z,101790.00
2022-09-10T19:09:29.349Z,101789.97
2022-09-10T19:12:00.436Z,101789.94
2022-09-10T19:14:31.021Z,101774.28
2022-09-10T19:17:02.096Z,101781.19
2022-09-10T19:19:32.142Z,101787.16
2022-09-10T19:22:03.760Z,101795.78
2022-09-10T19:24:53.651Z,101787.13
2022-09-10T19:27:21.780Z,101793.13
2022-09-10T19:29:50.395Z,101802.69
2022-09-10T19:32:22.088Z,101804.38
2022-09-10T19:34:51.428Z,101805.19
2022-09-10T19:37:19.987Z,101801.72
2022-09-10T19:39:48.314Z,101806.03
2022-09-10T19:42:18.541Z,101810.31
2022-09-10T19:44:49.405Z,101814.59
2022-09-10T19:47:17.914Z,101815.44
2022-09-10T19:49:54.172Z,101812.81
2022-09-10T19:52:28.967Z,101812.75
2022-09-10T19:55:09.465Z,101819.66
2022-09-10T19:57:38.030Z,101810.94
2022-09-10T20:00:20.615Z,101817.84
2022-09-10T20:03:02.745Z,101809.97
2022-09-10T20:05:34.138Z,101810.81
2022-09-10T20:08:05.315Z,101812.53
2022-09-10T20:10:33.719Z,101811.63
2022-09-10T20:13:01.922Z,101812.44
2022-09-10T20:15:30.296Z,101815.03
2022-09-10T20:17:58.498Z,101817.56
2022-09-10T20:20:26.871Z,101819.28
2022-09-10T20:22:58.455Z,101811.41
2022-09-10T20:25:28.429Z,101814.00
2022-09-10T20:27:56.900Z,101813.09
2022-09-10T20:30:25.385Z,101818.28
2022-09-10T20:32:54.270Z,101819.06
2022-09-10T20:35:22.499Z,101804.28
2022-09-10T20:37:51.834Z,101810.34
2022-09-10T20:40:21.595Z,101798.06
2022-09-10T20:42:49.739Z,101798.03
2022-09-10T20:45:17.974Z,101799.75
2022-09-10T20:47:48.629Z,101801.44
2022-09-10T20:50:16.814Z,101804.03
2022-09-10T20:52:45.183Z,101803.97
2022-09-10T20:55:13.426Z,101801.34
2022-09-10T20:57:43.165Z,101802.13
2022-09-10T21:00:12.931Z,101799.47
2022-09-10T21:02:41.278Z,101805.50
2022-09-10T21:05:13.626Z,101808.94
2022-09-10T21:07:44.510Z,101814.09
2022-09-10T21:10:12.682Z,101807.13
2022-09-10T21:12:42.493Z,101805.38
2022-09-10T21:15:12.073Z,101807.94
2022-09-10T21:17:40.298Z,101805.34
2022-09-10T21:20:08.808Z,101801.00
2022-09-10T21:22:37.013Z,101807.03
2022-09-10T21:25:05.878Z,101800.06
2022-09-10T21:27:34.310Z,101795.66
2022-09-10T21:30:04.734Z,101790.47
2022-09-10T21:32:37.161Z,101792.13
2022-09-10T21:35:08.460Z,101793.81
2022-09-10T21:37:36.605Z,101794.63
2022-09-10T21:40:05.426Z,101790.28
2022-09-10T21:42:33.714Z,101787.63
2022-09-10T21:45:03.692Z,101782.41
2022-09-10T21:47:33.351Z,101778.03
2022-09-10T21:50:01.501Z,101785.00
2022-09-10T21:52:29.839Z,101776.28
2022-09-10T21:54:58.085Z,101779.81
2022-09-10T21:57:26.478Z,101785.00
2022-09-10T21:59:54.575Z,101782.41
2022-09-10T22:02:24.552Z,101779.81
2022-09-10T22:04:53.356Z,101788.44
2022-09-10T22:07:21.517Z,101789.28
2022-09-10T22:09:50.398Z,101789.28
2022-09-10T22:12:18.639Z,101796.19
2022-09-10T22:14:46.840Z,101792.72
2022-09-10T22:17:15.212Z,101786.63
2022-09-10T22:19:44.932Z,101803.09
2022-09-10T22:22:13.307Z,101797.00
2022-09-10T22:24:41.609Z,101804.03
2022-09-10T22:27:10.710Z,101808.38
2022-09-10T22:29:38.943Z,101802.28
2022-09-10T22:32:07.561Z,101803.03
2022-09-10T22:34:36.655Z,101795.22
2022-09-10T22:37:06.788Z,101802.09
2022-09-10T22:39:37.160Z,101789.06
2022-09-10T22:42:06.030Z,101786.41
2022-09-10T22:44:34.539Z,101782.09
2022-09-10T22:47:03.287Z,101788.97
2022-09-10T22:49:31.473Z,101782.00
2022-09-10T22:51:59.842Z,101795.00
2022-09-10T22:54:30.660Z,101788.94
2022-09-10T22:56:59.643Z,101782.00
2022-09-10T22:59:27.947Z,101778.50
2022-09-10T23:01:56.593Z,101789.78
2022-09-10T23:04:24.832Z,101787.19
2022-09-10T23:06:53.588Z,101783.69
2022-09-10T23:09:21.941Z,101781.06
2022-09-10T23:11:51.820Z,101782.72
2022-09-10T23:14:22.183Z,101784.44
2022-09-10T23:16:51.902Z,101787.88
2022-09-10T23:19:22.589Z,101778.28
2022-09-10T23:21:52.331Z,101775.63
2022-09-10T23:24:22.871Z,101777.34
2022-09-10T23:26:52.477Z,101773.78
2022-09-10T23:29:21.649Z,101764.97
2022-09-10T23:31:53.545Z,101761.41
2022-09-10T23:34:22.743Z,101769.97
2022-09-10T23:36:51.450Z,101776.81
2022-09-10T23:39:21.743Z,101778.41
2022-09-10T23:41:54.637Z,101775.78
2022-09-10T23:44:23.233Z,101774.88
2022-09-10T23:46:52.107Z,101773.94
2022-09-10T23:49:20.753Z,101780.81
2022-09-10T23:51:49.234Z,101776.41
2022-09-10T23:54:17.521Z,101769.50
2022-09-10T23:56:46.104Z,101764.16
